Time;durP1;ratioP1;P1;durP2;ratioP2;P2;SDS_P1;SDS_P2;PMS_P1;PMS_P2;Temp;Humidity;BMP_temperature;BMP_pressure;BME280_temperature;BME280_humidity;BME280_pressure;Samples;Min_cycle;Max_cycle;Signal;HPM_P1;HPM_P2
2021/04/01 00:00:52;;;;;;;7.03;5.45;;;;;;;;;;4919020;29;20081;-86
2021/04/01 00:03:20;;;;;;;7.03;5.63;;;;;;;;;;4918976;29;20040;-84
2021/04/01 00:05:46;;;;;;;8.32;6.70;;;;;;;;;;4901755;29;20037;-86
2021/04/01 00:08:12;;;;;;;8.63;6.78;;;;;;;;;;4901760;29;20399;-84
2021/04/01 00:10:42;;;;;;;8.48;5.80;;;;;;;;;;4918607;29;20399;-84
2021/04/01 00:13:09;;;;;;;8.15;6.55;;;;;;;;;;4918612;29;20040;-84
2021/04/01 00:15:37;;;;;;;9.20;7.18;;;;;;;;;;4901566;29;20031;-83
2021/04/01 00:18:03;;;;;;;10.55;6.80;;;;;;;;;;4918517;29;20028;-83
2021/04/01 00:20:29;;;;;;;9.82;7.10;;;;;;;;;;4918358;29;20110;-85
2021/04/01 00:22:55;;;;;;;9.63;6.80;;;;;;;;;;4918592;29;20042;-82
2021/04/01 00:25:23;;;;;;;9.57;7.18;;;;;;;;;;4918285;29;20042;-86
2021/04/01 00:27:49;;;;;;;9.52;6.45;;;;;;;;;;4918292;29;20058;-84
2021/04/01 00:30:15;;;;;;;7.55;5.85;;;;;;;;;;4901273;29;20028;-86
2021/04/01 00:32:42;;;;;;;8.27;5.90;;;;;;;;;;4918122;29;20028;-86
2021/04/01 00:35:08;;;;;;;7.28;5.75;;;;;;;;;;4918072;29;20039;-83
2021/04/01 00:37:35;;;;;;;7.70;5.68;;;;;;;;;;4918020;29;20051;-84
2021/04/01 00:40:01;;;;;;;7.50;5.72;;;;;;;;;;4900981;29;20032;-85
2021/04/01 00:42:27;;;;;;;6.10;5.47;;;;;;;;;;4918149;29;20387;-84
2021/04/01 00:44:58;;;;;;;7.50;5.30;;;;;;;;;;4918372;29;20035;-87
2021/04/01 00:47:24;;;;;;;6.53;5.50;;;;;;;;;;4917795;29;20028;-86
2021/04/01 00:49:50;;;;;;;6.70;5.57;;;;;;;;;;4918047;29;20036;-85
2021/04/01 00:52:25;;;;;;;6.68;5.57;;;;;;;;;;4918014;29;20021;-84
2021/04/01 00:54:51;;;;;;;7.90;5.97;;;;;;;;;;4917737;29;20043;-85
2021/04/01 00:57:17;;;;;;;7.13;6.20;;;;;;;;;;4918118;29;20415;-82
2021/04/01 00:59:43;;;;;;;7.43;6.05;;;;;;;;;;4900747;29;20028;-84
2021/04/01 01:02:09;;;;;;;7.97;6.80;;;;;;;;;;4917858;29;20041;-85
2021/04/01 01:04:36;;;;;;;6.95;6.10;;;;;;;;;;4917878;29;20028;-84
2021/04/01 01:07:03;;;;;;;8.77;6.35;;;;;;;;;;4917782;29;20036;-87
2021/04/01 01:09:30;;;;;;;8.77;6.35;;;;;;;;;;4917468;29;20495;-83
2021/04/01 01:11:56;;;;;;;8.68;6.85;;;;;;;;;;4917570;29;20443;-81
2021/04/01 01:14:22;;;;;;;8.48;6.05;;;;;;;;;;4917526;29;20040;-83
2021/04/01 01:16:48;;;;;;;7.03;6.32;;;;;;;;;;4900434;29;20024;-84
2021/04/01 01:19:16;;;;;;;8.05;6.10;;;;;;;;;;4909836;29;20032;-82
2021/04/01 01:21:42;;;;;;;6.60;5.22;;;;;;;;;;4917538;29;20044;-85
2021/04/01 01:24:27;;;;;;;6.65;5.80;;;;;;;;;;4917478;29;20031;-84
2021/04/01 01:26:53;;;;;;;;;;;;;;;;;;4917280;29;20055;-86
2021/04/01 01:29:19;;;;;;;8.13;5.70;;;;;;;;;;4900433;29;20278;-85
2021/04/01 01:31:49;;;;;;;8.20;5.97;;;;;;;;;;4917576;29;20036;-83
2021/04/01 01:34:15;;;;;;;7.97;6.10;;;;;;;;;;4917409;29;20111;-82
2021/04/01 01:36:41;;;;;;;8.00;6.50;;;;;;;;;;4917430;29;20405;-81
2021/04/01 01:39:07;;;;;;;8.68;5.63;;;;;;;;;;4917537;29;20034;-85
2021/04/01 01:41:33;;;;;;;7.60;6.05;;;;;;;;;;4917301;29;20032;-86
2021/04/01 01:44:00;;;;;;;7.00;6.05;;;;;;;;;;4917640;29;20032;-83
2021/04/01 01:46:26;;;;;;;7.07;5.25;;;;;;;;;;4917368;29;20020;-84
2021/04/01 01:48:52;;;;;;;8.02;6.40;;;;;;;;;;4917128;29;20472;-86
2021/04/01 01:51:20;;;;;;;7.50;5.88;;;;;;;;;;4917165;29;20035;-82
2021/04/01 01:53:46;;;;;;;6.85;6.15;;;;;;;;;;4917227;29;20064;-82
2021/04/01 01:56:12;;;;;;;7.43;5.43;;;;;;;;;;4917163;29;20039;-84
2021/04/01 01:58:38;;;;;;;9.60;6.20;;;;;;;;;;4917149;29;20087;-83
2021/04/01 02:01:06;;;;;;;9.77;7.38;;;;;;;;;;4917225;29;20515;-85
2021/04/01 02:03:32;;;;;;;10.35;8.32;;;;;;;;;;4899818;29;20031;-84
2021/04/01 02:05:58;;;;;;;9.70;6.70;;;;;;;;;;4917019;29;20046;-87
2021/04/01 02:08:24;;;;;;;9.40;7.00;;;;;;;;;;4916801;29;20063;-85
2021/04/01 02:10:51;;;;;;;6.88;5.45;;;;;;;;;;4899937;29;20020;-86
2021/04/01 02:13:19;;;;;;;8.65;6.00;;;;;;;;;;4900026;29;20025;-86
2021/04/01 02:15:46;;;;;;;7.00;5.60;;;;;;;;;;4917212;29;20035;-85
2021/04/01 02:18:15;;;;;;;9.10;6.80;;;;;;;;;;4917296;29;20032;-85
2021/04/01 02:20:46;;;;;;;8.32;6.28;;;;;;;;;;4900141;29;20119;-86
2021/04/01 02:23:19;;;;;;;7.68;6.80;;;;;;;;;;4916980;29;20542;-80
2021/04/01 02:25:46;;;;;;;7.45;4.80;;;;;;;;;;4916871;29;20031;-85
2021/04/01 02:28:13;;;;;;;6.28;5.15;;;;;;;;;;4916399;29;20056;-88
2021/04/01 02:30:40;;;;;;;9.07;6.63;;;;;;;;;;4899870;29;20028;-82
2021/04/01 02:33:06;;;;;;;7.35;5.60;;;;;;;;;;4916908;29;20028;-81
2021/04/01 02:35:33;;;;;;;9.85;6.40;;;;;;;;;;4917082;29;20032;-83
2021/04/01 02:38:00;;;;;;;9.00;7.05;;;;;;;;;;4918552;29;20055;-84
2021/04/01 02:40:26;;;;;;;6.50;5.72;;;;;;;;;;4920114;29;20127;-83
2021/04/01 02:42:53;;;;;;;8.57;6.40;;;;;;;;;;4919988;29;20171;-86
2021/04/01 02:45:19;;;;;;;10.70;7.63;;;;;;;;;;4920067;29;20032;-79
2021/04/01 02:47:45;;;;;;;10.32;7.40;;;;;;;;;;4903011;29;20476;-85
2021/04/01 02:50:11;;;;;;;7.38;6.22;;;;;;;;;;4919923;29;20103;-84
2021/04/01 02:52:38;;;;;;;7.50;6.00;;;;;;;;;;4919796;29;20032;-85
2021/04/01 02:55:05;;;;;;;9.65;5.78;;;;;;;;;;4919809;29;20039;-85
2021/04/01 02:57:32;;;;;;;6.68;5.35;;;;;;;;;;4919742;29;20119;-86
2021/04/01 03:00:00;;;;;;;7.80;5.40;;;;;;;;;;4919675;29;20031;-85
2021/04/01 03:02:27;;;;;;;8.02;6.15;;;;;;;;;;4919765;29;20399;-84
2021/04/01 03:04:54;;;;;;;6.78;5.45;;;;;;;;;;4920418;29;20875;-86
2021/04/01 03:07:20;;;;;;;8.18;6.32;;;;;;;;;;4920758;29;20071;-88
2021/04/01 03:09:46;;;;;;;8.25;6.15;;;;;;;;;;4920181;29;20060;-85
2021/04/01 03:12:12;;;;;;;8.45;6.25;;;;;;;;;;4920434;29;20506;-86
2021/04/01 03:14:38;;;;;;;7.75;6.22;;;;;;;;;;4919848;29;20491;-84
2021/04/01 03:17:05;;;;;;;9.15;5.38;;;;;;;;;;4919729;29;20059;-83
2021/04/01 03:19:31;;;;;;;7.88;5.72;;;;;;;;;;4920047;29;20091;-85
2021/04/01 03:21:57;;;;;;;7.47;5.40;;;;;;;;;;4919921;29;20396;-87
2021/04/01 03:24:23;;;;;;;6.45;4.95;;;;;;;;;;4919824;29;20114;-82
2021/04/01 03:26:49;;;;;;;7.05;6.35;;;;;;;;;;4919401;29;20460;-86
2021/04/01 03:29:15;;;;;;;7.18;5.80;;;;;;;;;;4919754;29;20024;-87
2021/04/01 03:31:42;;;;;;;8.85;6.35;;;;;;;;;;4919434;29;20040;-85
2021/04/01 03:34:08;;;;;;;7.55;5.60;;;;;;;;;;4902506;29;20055;-85
2021/04/01 03:36:34;;;;;;;7.50;5.88;;;;;;;;;;4919662;29;20063;-86
2021/04/01 03:39:00;;;;;;;9.68;6.47;;;;;;;;;;4919431;29;20051;-86
2021/04/01 03:41:26;;;;;;;8.27;6.57;;;;;;;;;;4919167;29;20168;-85
2021/04/01 03:43:52;;;;;;;8.95;6.88;;;;;;;;;;4919375;29;20035;-85
2021/04/01 03:46:19;;;;;;;10.55;7.35;;;;;;;;;;4902508;29;20479;-83
2021/04/01 03:48:45;;;;;;;11.63;7.95;;;;;;;;;;4918580;29;20032;-85
2021/04/01 03:51:11;;;;;;;10.93;8.05;;;;;;;;;;4902553;29;20094;-87
2021/04/01 03:53:37;;;;;;;9.32;6.70;;;;;;;;;;4902180;29;20484;-86
2021/04/01 03:56:04;;;;;;;13.00;7.72;;;;;;;;;;4918976;29;20116;-80
2021/04/01 04:12:28;;;;;;;14.88;9.90;;;;;;;;;;4918792;29;20421;-81
2021/04/01 04:17:39;;;;;;;10.25;8.45;;;;;;;;;;4918471;29;20044;-82
2021/04/01 04:20:07;;;;;;;10.52;8.05;;;;;;;;;;4918236;29;20036;-81
2021/04/01 04:22:33;;;;;;;10.32;8.15;;;;;;;;;;4918814;29;20040;-83
2021/04/01 04:25:00;;;;;;;12.07;8.18;;;;;;;;;;4918128;29;20024;-83
2021/04/01 04:30:01;;;;;;;13.35;8.38;;;;;;;;;;4918155;29;20060;-86
2021/04/01 04:32:34;;;;;;;13.02;8.43;;;;;;;;;;4901413;29;20029;-84
2021/04/01 04:35:01;;;;;;;10.40;7.35;;;;;;;;;;4917819;29;20534;-84
2021/04/01 04:37:27;;;;;;;8.40;7.55;;;;;;;;;;4901180;29;20079;-86
2021/04/01 04:39:53;;;;;;;11.02;7.15;;;;;;;;;;4917801;29;20039;-85
2021/04/01 04:42:20;;;;;;;8.15;6.88;;;;;;;;;;4918253;29;20091;-89
2021/04/01 04:44:46;;;;;;;9.30;6.85;;;;;;;;;;4917478;29;20060;-85
2021/04/01 04:47:12;;;;;;;11.52;8.05;;;;;;;;;;4917813;29;20028;-84
2021/04/01 04:49:38;;;;;;;12.80;7.75;;;;;;;;;;4917738;29;20046;-86
2021/04/01 04:52:05;;;;;;;11.57;7.65;;;;;;;;;;4917637;29;20039;-86
2021/04/01 04:54:34;;;;;;;11.60;8.05;;;;;;;;;;4917856;29;20060;-84
2021/04/01 04:57:16;;;;;;;9.32;6.88;;;;;;;;;;4917379;29;20028;-84
2021/04/01 05:00:09;;;;;;;8.55;7.28;;;;;;;;;;4899437;29;20052;-85
2021/04/01 05:05:16;;;;;;;9.75;7.03;;;;;;;;;;4917558;29;20077;-87
2021/04/01 05:07:42;;;;;;;9.35;6.68;;;;;;;;;;4917457;29;20032;-83
2021/04/01 05:10:08;;;;;;;10.43;7.95;;;;;;;;;;4917445;29;20063;-84
2021/04/01 05:12:34;;;;;;;12.85;8.75;;;;;;;;;;4917440;29;20036;-84
2021/04/01 05:15:00;;;;;;;10.93;7.75;;;;;;;;;;4916772;29;20453;-81
2021/04/01 05:17:26;;;;;;;9.48;7.63;;;;;;;;;;4916514;29;20103;-82
2021/04/01 05:19:59;;;;;;;14.55;8.50;;;;;;;;;;4916490;29;20063;-83
2021/04/01 05:22:39;;;;;;;13.40;7.90;;;;;;;;;;4916608;29;20091;-82
2021/04/01 05:25:06;;;;;;;16.70;11.98;;;;;;;;;;4934302;29;20077;-84
2021/04/01 05:27:46;;;;;;;13.20;10.93;;;;;;;;;;4935527;29;20036;-81
2021/04/01 05:30:12;;;;;;;16.00;11.20;;;;;;;;;;4908897;29;20451;-81
2021/04/01 05:32:43;;;;;;;17.20;11.63;;;;;;;;;;4930112;29;20411;-81
2021/04/01 05:35:12;;;;;;;11.65;8.95;;;;;;;;;;4925197;29;20043;-81
2021/04/01 05:37:39;;;;;;;12.13;8.20;;;;;;;;;;4917125;29;20090;-82
2021/04/01 05:40:06;;;;;;;10.40;8.68;;;;;;;;;;4945813;29;20035;-81
2021/04/01 05:42:37;;;;;;;10.00;8.07;;;;;;;;;;4953145;29;20070;-82
2021/04/01 05:45:10;;;;;;;10.55;7.93;;;;;;;;;;4952731;29;20442;-82
2021/04/01 05:47:46;;;;;;;10.93;9.00;;;;;;;;;;4951326;29;20035;-82
2021/04/01 06:07:11;;;;;;;13.32;10.63;;;;;;;;;;4952718;29;20035;-84
2021/04/01 06:15:49;;;;;;;12.00;9.38;;;;;;;;;;4953202;29;20089;-80
2021/04/01 06:18:16;;;;;;;10.20;7.70;;;;;;;;;;4924931;29;20075;-83
2021/04/01 06:20:44;;;;;;;9.70;7.05;;;;;;;;;;4914618;29;20079;-79
2021/04/01 06:23:12;;;;;;;9.07;7.25;;;;;;;;;;4914844;29;20501;-86
2021/04/01 06:25:39;;;;;;;9.75;8.07;;;;;;;;;;4914937;29;20039;-83
2021/04/01 06:28:08;;;;;;;8.65;7.75;;;;;;;;;;4914167;29;20092;-85
2021/04/01 06:30:49;;;;;;;10.05;7.43;;;;;;;;;;4914921;29;20479;-81
2021/04/01 06:33:20;;;;;;;10.70;7.72;;;;;;;;;;4914566;29;20135;-86
2021/04/01 06:35:55;;;;;;;7.22;6.03;;;;;;;;;;4914574;29;20051;-87
2021/04/01 06:38:26;;;;;;;10.65;7.88;;;;;;;;;;4914702;29;20372;-86
2021/04/01 06:40:52;;;;;;;8.73;7.40;;;;;;;;;;4951416;29;20031;-83
2021/04/01 06:43:22;;;;;;;14.93;9.50;;;;;;;;;;4952354;29;20038;-85
2021/04/01 06:45:52;;;;;;;8.65;7.55;;;;;;;;;;4935812;29;20027;-82
2021/04/01 10:20:36;;;;;;;7.38;5.43;;;;;;;;;;4912403;29;20085;-82
2021/04/01 10:23:06;;;;;;;5.82;4.38;;;;;;;;;;4913729;29;20059;-83
2021/04/01 10:26:07;;;;;;;5.80;4.75;;;;;;;;;;4914845;29;20066;-84
2021/04/01 10:53:39;;;;;;;7.25;4.75;;;;;;;;;;4914133;29;20035;-81
2021/04/01 10:56:06;;;;;;;6.78;6.07;;;;;;;;;;4914647;29;20032;-87
2021/04/01 10:58:33;;;;;;;7.30;4.60;;;;;;;;;;4918872;29;20044;-80
2021/04/01 11:01:00;;;;;;;5.57;4.25;;;;;;;;;;4918307;29;20047;-82
2021/04/01 11:03:31;;;;;;;6.10;4.63;;;;;;;;;;4922411;29;20036;-79
2021/04/01 11:05:58;;;;;;;5.72;5.00;;;;;;;;;;4928138;29;20204;-82
2021/04/01 11:08:25;;;;;;;5.82;4.55;;;;;;;;;;4923765;29;20028;-88
2021/04/01 11:10:58;;;;;;;6.70;5.00;;;;;;;;;;4906486;29;20494;-79
2021/04/01 11:13:31;;;;;;;5.13;4.63;;;;;;;;;;4923653;29;20040;-83
2021/04/01 11:15:58;;;;;;;6.40;4.60;;;;;;;;;;4925723;29;20036;-84
2021/04/01 13:29:04;;;;;;;5.32;4.10;;;;;;;;;;4913074;29;20124;-85
2021/04/01 13:39:36;;;;;;;5.75;4.07;;;;;;;;;;4941592;29;20081;-85
2021/04/01 13:42:12;;;;;;;4.55;3.80;;;;;;;;;;4934085;29;20067;-83
2021/04/01 13:44:47;;;;;;;5.80;4.07;;;;;;;;;;4923830;29;20174;-79
2021/04/01 13:47:13;;;;;;;5.03;4.07;;;;;;;;;;4934188;29;20024;-82
2021/04/01 13:49:41;;;;;;;6.65;4.97;;;;;;;;;;4934336;29;20115;-81
2021/04/01 13:58:12;;;;;;;4.75;3.42;;;;;;;;;;4933754;29;20040;-83
2021/04/01 14:00:49;;;;;;;4.93;3.75;;;;;;;;;;4933557;29;20036;-81
2021/04/01 14:11:40;;;;;;;6.65;4.40;;;;;;;;;;4933773;29;20043;-82
2021/04/01 14:14:07;;;;;;;6.88;4.20;;;;;;;;;;4933553;29;20079;-82
2021/04/01 14:16:35;;;;;;;4.80;4.30;;;;;;;;;;4933823;29;20059;-81
2021/04/01 14:19:01;;;;;;;6.03;4.75;;;;;;;;;;4933487;29;20028;-83
2021/04/01 14:21:28;;;;;;;7.72;5.50;;;;;;;;;;4933520;29;20036;-84
2021/04/01 14:23:54;;;;;;;6.18;3.90;;;;;;;;;;4933961;29;20024;-83
2021/04/01 14:26:42;;;;;;;6.95;4.50;;;;;;;;;;4916681;29;20604;-81
2021/04/01 14:29:09;;;;;;;4.90;4.10;;;;;;;;;;4933791;29;20079;-85
2021/04/01 14:31:36;;;;;;;3.47;3.17;;;;;;;;;;4910379;29;20040;-82
2021/04/01 14:34:02;;;;;;;5.47;3.65;;;;;;;;;;4927524;29;20039;-81
2021/04/01 14:36:29;;;;;;;4.20;3.78;;;;;;;;;;4934520;29;20036;-81
2021/04/01 14:38:55;;;;;;;6.32;4.25;;;;;;;;;;4921064;29;20356;-81
2021/04/01 14:44:17;;;;;;;5.20;4.15;;;;;;;;;;4921045;29;20047;-83
2021/04/01 14:46:43;;;;;;;6.72;4.55;;;;;;;;;;4918295;29;20733;-84
2021/04/01 14:49:09;;;;;;;6.50;4.78;;;;;;;;;;4918103;29;20104;-87
2021/04/01 14:51:36;;;;;;;7.50;4.78;;;;;;;;;;4918337;29;20028;-85
2021/04/01 14:56:52;;;;;;;7.13;4.93;;;;;;;;;;4937197;29;20106;-81
2021/04/01 14:59:23;;;;;;;6.38;5.13;;;;;;;;;;4918930;29;20028;-81
2021/04/01 15:01:50;;;;;;;7.10;5.50;;;;;;;;;;4917904;29;20084;-79
2021/04/01 15:04:17;;;;;;;5.18;4.53;;;;;;;;;;4924857;29;20036;-81
2021/04/01 15:06:45;;;;;;;6.13;5.10;;;;;;;;;;4936977;29;20032;-79
2021/04/01 15:09:12;;;;;;;6.97;5.25;;;;;;;;;;4936631;29;20062;-87
2021/04/01 15:11:39;;;;;;;8.15;4.70;;;;;;;;;;4919686;29;20031;-79
2021/04/01 15:14:07;;;;;;;7.22;5.15;;;;;;;;;;4936552;29;20502;-83
2021/04/01 15:16:36;;;;;;;7.78;5.35;;;;;;;;;;4936891;29;20039;-81
2021/04/01 15:19:02;;;;;;;5.72;4.57;;;;;;;;;;4936319;29;20123;-84
2021/04/01 15:21:28;;;;;;;5.03;4.53;;;;;;;;;;4923985;29;20674;-81
2021/04/01 15:23:54;;;;;;;12.82;7.55;;;;;;;;;;4932498;29;20035;-81
2021/04/01 15:26:20;;;;;;;9.50;6.70;;;;;;;;;;4927657;29;20462;-84
2021/04/01 15:28:47;;;;;;;9.80;6.65;;;;;;;;;;4903360;29;20482;-83
2021/04/01 15:31:13;;;;;;;10.40;7.18;;;;;;;;;;4903690;29;20122;-83
2021/04/01 15:33:39;;;;;;;6.00;5.30;;;;;;;;;;4905209;29;20043;-80
2021/04/01 15:36:05;;;;;;;17.40;12.02;;;;;;;;;;4925390;29;20799;-81
2021/04/01 15:38:32;;;;;;;11.45;8.38;;;;;;;;;;4924396;29;20115;-83
2021/04/01 15:40:58;;;;;;;14.65;10.70;;;;;;;;;;4920903;29;20072;-85
2021/04/01 15:43:25;;;;;;;11.73;6.13;;;;;;;;;;4927097;29;20035;-83
2021/04/01 15:45:52;;;;;;;16.15;10.25;;;;;;;;;;4924027;29;20491;-83
2021/04/01 15:48:18;;;;;;;6.65;4.97;;;;;;;;;;4918415;29;20066;-85
2021/04/01 15:50:44;;;;;;;11.43;8.07;;;;;;;;;;4921110;29;20032;-80
2021/04/01 15:53:15;;;;;;;7.18;5.38;;;;;;;;;;4933079;29;20036;-83
2021/04/01 15:55:41;;;;;;;7.38;5.38;;;;;;;;;;4926089;29;20063;-84
2021/04/01 15:58:07;;;;;;;6.60;5.43;;;;;;;;;;4918201;29;20043;-82
2021/04/01 16:00:34;;;;;;;7.47;5.38;;;;;;;;;;4918821;29;20092;-85
2021/04/01 16:03:00;;;;;;;8.13;5.45;;;;;;;;;;4901605;29;20080;-84
2021/04/01 16:05:26;;;;;;;8.93;5.70;;;;;;;;;;4936453;29;20032;-84
2021/04/01 16:07:52;;;;;;;6.82;5.47;;;;;;;;;;4937286;29;20031;-85
2021/04/01 16:10:19;;;;;;;7.32;5.60;;;;;;;;;;4937116;29;20380;-84
2021/04/01 16:12:45;;;;;;;6.30;4.88;;;;;;;;;;4937200;29;20467;-86
2021/04/01 16:15:11;;;;;;;6.95;4.97;;;;;;;;;;4936723;29;20032;-85
2021/04/01 16:17:37;;;;;;;7.82;6.10;;;;;;;;;;4937176;29;20020;-72
2021/04/01 16:20:04;;;;;;;13.38;7.38;;;;;;;;;;4936804;29;20024;-84
2021/04/01 16:22:30;;;;;;;8.65;7.15;;;;;;;;;;4936948;29;20050;-73
2021/04/01 16:24:57;;;;;;;9.82;7.93;;;;;;;;;;4937192;29;20083;-86
2021/04/01 16:27:23;;;;;;;11.30;8.25;;;;;;;;;;4936759;29;20428;-86
2021/04/01 16:29:51;;;;;;;9.35;7.50;;;;;;;;;;4936943;29;20158;-86
2021/04/01 16:32:18;;;;;;;8.27;7.10;;;;;;;;;;4936841;29;20503;-84
2021/04/01 16:34:44;;;;;;;9.07;6.93;;;;;;;;;;4926652;29;20492;-84
2021/04/01 16:37:10;;;;;;;11.32;8.05;;;;;;;;;;4927444;29;20452;-84
2021/04/01 16:39:37;;;;;;;11.75;9.95;;;;;;;;;;4934822;29;20036;-84
2021/04/01 16:42:03;;;;;;;10.43;8.63;;;;;;;;;;4918196;29;20036;-84
2021/04/01 16:44:29;;;;;;;10.73;8.73;;;;;;;;;;4935555;29;20036;-81
2021/04/01 16:46:55;;;;;;;10.18;7.90;;;;;;;;;;4935656;29;20055;-83
2021/04/01 16:49:21;;;;;;;11.90;9.55;;;;;;;;;;4935297;29;20410;-84
2021/04/01 16:51:53;;;;;;;14.20;11.05;;;;;;;;;;4935206;29;20035;-86
2021/04/01 16:54:20;;;;;;;12.70;9.48;;;;;;;;;;4935327;29;20031;-83
2021/04/01 16:57:04;;;;;;;12.43;10.18;;;;;;;;;;4910476;29;20122;-84
2021/04/01 16:59:30;;;;;;;;;;;;;;;;;;4917725;29;20519;-84
2021/04/01 17:01:57;;;;;;;10.50;9.05;;;;;;;;;;4922289;29;19966;-85
2021/04/01 17:04:23;;;;;;;12.30;9.27;;;;;;;;;;4921166;29;20039;-83
2021/04/01 17:06:55;;;;;;;15.73;10.52;;;;;;;;;;4917163;29;20042;-85
2021/04/01 17:09:21;;;;;;;19.52;13.15;;;;;;;;;;4933692;29;20110;-85
2021/04/01 17:11:48;;;;;;;17.60;12.05;;;;;;;;;;4925152;29;20024;-84
2021/04/01 17:14:14;;;;;;;12.35;9.90;;;;;;;;;;4919336;29;20032;-80
2021/04/01 17:16:41;;;;;;;10.85;8.75;;;;;;;;;;4916526;29;20059;-80
2021/04/01 17:19:08;;;;;;;14.85;9.55;;;;;;;;;;4924040;29;20043;-83
2021/04/01 17:21:34;;;;;;;13.43;9.90;;;;;;;;;;4935710;29;20123;-82
2021/04/01 17:24:00;;;;;;;14.98;9.90;;;;;;;;;;4935479;29;20023;-82
2021/04/01 17:26:27;;;;;;;16.90;12.02;;;;;;;;;;4935531;29;20032;-81
2021/04/01 17:28:53;;;;;;;20.20;13.85;;;;;;;;;;4931613;29;20140;-82
2021/04/01 17:31:19;;;;;;;13.93;11.10;;;;;;;;;;4916394;29;20040;-83
2021/04/01 17:33:45;;;;;;;11.48;9.45;;;;;;;;;;4916510;29;20032;-84
2021/04/01 17:36:12;;;;;;;21.33;13.95;;;;;;;;;;4916076;29;20028;-87
2021/04/01 17:38:39;;;;;;;22.33;15.43;;;;;;;;;;4915827;29;20113;-86
2021/04/01 17:41:05;;;;;;;30.13;23.65;;;;;;;;;;4916162;29;20033;-78
2021/04/01 17:43:31;;;;;;;25.10;20.30;;;;;;;;;;4921136;29;20031;-80
2021/04/01 17:45:58;;;;;;;30.65;22.85;;;;;;;;;;4904997;29;20468;-81
2021/04/01 17:48:24;;;;;;;24.65;19.95;;;;;;;;;;4915441;29;20103;-80
2021/04/01 17:50:51;;;;;;;21.73;17.73;;;;;;;;;;4915922;29;20028;-84
2021/04/01 17:53:17;;;;;;;26.15;18.83;;;;;;;;;;4919377;29;20059;-81
2021/04/01 17:55:49;;;;;;;24.33;19.38;;;;;;;;;;4929220;29;20042;-83
2021/04/01 17:58:16;;;;;;;30.30;24.45;;;;;;;;;;4924301;29;20032;-83
2021/04/01 18:00:48;;;;;;;32.53;25.77;;;;;;;;;;4934493;29;20075;-82
2021/04/01 18:22:17;;;;;;;20.20;16.20;;;;;;;;;;4934953;29;20053;-82
2021/04/01 18:27:34;;;;;;;;;;;;;;;;;;4935167;29;20046;-81
2021/04/01 18:30:23;;;;;;;20.30;16.90;;;;;;;;;;4934266;29;19918;-86
2021/04/01 18:38:25;;;;;;;27.42;21.75;;;;;;;;;;4934545;29;20813;-82
2021/04/01 18:40:56;;;;;;;16.40;12.15;;;;;;;;;;4916967;29;20039;-83
2021/04/01 18:43:23;;;;;;;11.18;9.35;;;;;;;;;;4934428;29;20066;-80
2021/04/01 18:48:41;;;;;;;19.30;14.07;;;;;;;;;;4935156;29;20066;-81
2021/04/01 18:51:13;;;;;;;26.77;19.63;;;;;;;;;;4935031;29;20020;-81
2021/04/01 18:53:49;;;;;;;14.93;11.25;;;;;;;;;;4935217;29;20036;-80
2021/04/01 18:56:19;;;;;;;16.20;11.40;;;;;;;;;;4935107;29;20110;-80
2021/04/01 18:58:53;;;;;;;17.25;12.40;;;;;;;;;;4935266;29;20075;-82
2021/04/01 19:03:53;;;;;;;20.20;14.57;;;;;;;;;;4935057;29;20027;-84
2021/04/01 19:06:23;;;;;;;20.42;13.57;;;;;;;;;;4935064;29;20119;-80
2021/04/01 19:08:56;;;;;;;13.75;10.90;;;;;;;;;;4934808;29;20036;-80
2021/04/01 19:24:39;;;;;;;10.18;6.88;;;;;;;;;;4938200;29;20035;-80
2021/04/01 19:27:06;;;;;;;10.88;8.15;;;;;;;;;;4938095;29;20028;-83
2021/04/01 19:29:32;;;;;;;12.70;7.25;;;;;;;;;;4937803;29;20066;-81
2021/04/01 19:31:59;;;;;;;7.75;6.95;;;;;;;;;;4937802;29;20035;-81
2021/04/01 19:34:25;;;;;;;17.35;11.07;;;;;;;;;;4937947;29;20027;-81
2021/04/01 19:36:54;;;;;;;12.73;9.65;;;;;;;;;;4920594;29;20024;-80
2021/04/01 19:39:22;;;;;;;14.77;11.10;;;;;;;;;;4937998;29;20031;-82
2021/04/01 19:41:51;;;;;;;10.40;8.13;;;;;;;;;;4937619;29;20035;-80
2021/04/01 19:44:18;;;;;;;10.23;8.50;;;;;;;;;;4937845;29;20809;-82
2021/04/01 19:46:46;;;;;;;12.00;7.85;;;;;;;;;;4937772;29;20368;-80
2021/04/01 19:49:13;;;;;;;17.58;15.07;;;;;;;;;;4937765;29;20036;-81
2021/04/01 19:51:41;;;;;;;14.30;9.77;;;;;;;;;;4937614;29;20038;-83
2021/04/01 19:54:08;;;;;;;27.08;18.65;;;;;;;;;;4937634;29;20063;-80
2021/04/01 19:56:35;;;;;;;19.92;13.65;;;;;;;;;;4937678;29;20087;-81
2021/04/01 19:59:02;;;;;;;21.70;13.40;;;;;;;;;;4937462;29;20040;-80
2021/04/01 20:01:28;;;;;;;11.75;8.85;;;;;;;;;;4937408;29;20433;-83
2021/04/01 20:03:55;;;;;;;13.20;9.38;;;;;;;;;;4937354;29;20035;-83
2021/04/01 20:06:21;;;;;;;12.15;9.25;;;;;;;;;;4937352;29;20023;-82
2021/04/01 20:08:47;;;;;;;11.30;9.45;;;;;;;;;;4937263;29;20531;-81
2021/04/01 20:11:14;;;;;;;11.82;8.02;;;;;;;;;;4937375;29;20027;-81
2021/04/01 20:13:40;;;;;;;14.23;9.00;;;;;;;;;;4937202;29;20039;-82
2021/04/01 20:16:07;;;;;;;12.60;9.43;;;;;;;;;;4937024;29;20035;-82
2021/04/01 20:18:35;;;;;;;13.15;11.77;;;;;;;;;;4937377;29;20090;-80
2021/04/01 20:21:02;;;;;;;21.92;13.73;;;;;;;;;;4936820;29;20032;-81
2021/04/01 20:23:28;;;;;;;18.30;13.75;;;;;;;;;;4936926;29;20036;-83
2021/04/01 20:25:55;;;;;;;24.90;18.80;;;;;;;;;;4936777;29;20083;-85
2021/04/01 20:28:21;;;;;;;33.13;22.95;;;;;;;;;;4936835;29;20502;-85
2021/04/01 20:30:49;;;;;;;33.50;23.35;;;;;;;;;;4936548;29;20039;-83
2021/04/01 20:33:15;;;;;;;25.40;19.85;;;;;;;;;;4937231;29;20031;-78
2021/04/01 20:35:42;;;;;;;25.40;18.45;;;;;;;;;;4936954;29;20059;-81
2021/04/01 20:38:09;;;;;;;20.98;16.40;;;;;;;;;;4936907;29;20034;-84
2021/04/01 20:40:36;;;;;;;19.70;14.90;;;;;;;;;;4937059;29;20035;-82
2021/04/01 20:43:05;;;;;;;18.38;14.23;;;;;;;;;;4936572;29;20439;-83
2021/04/01 20:45:31;;;;;;;18.92;14.15;;;;;;;;;;4936949;29;20039;-80
2021/04/01 20:47:57;;;;;;;19.58;14.63;;;;;;;;;;4936619;29;20035;-82
2021/04/01 20:50:32;;;;;;;18.75;14.80;;;;;;;;;;4936808;29;20063;-85
2021/04/01 20:52:59;;;;;;;20.83;15.20;;;;;;;;;;4936564;29;20028;-83
2021/04/01 20:55:25;;;;;;;38.25;22.45;;;;;;;;;;4936674;29;20494;-82
2021/04/01 20:57:53;;;;;;;32.90;25.48;;;;;;;;;;4936156;29;20039;-80
2021/04/01 21:00:26;;;;;;;27.63;20.70;;;;;;;;;;4936586;29;20035;-85
2021/04/01 21:02:53;;;;;;;29.57;21.37;;;;;;;;;;4936216;29;20051;-82
2021/04/01 21:05:21;;;;;;;31.27;22.80;;;;;;;;;;4936540;29;20024;-84
2021/04/01 21:07:47;;;;;;;28.83;19.98;;;;;;;;;;4936105;29;20035;-82
2021/04/01 21:10:14;;;;;;;35.42;26.95;;;;;;;;;;4936390;29;20023;-84
2021/04/01 21:12:41;;;;;;;35.35;25.65;;;;;;;;;;4936306;29;20471;-83
2021/04/01 21:15:09;;;;;;;30.10;21.60;;;;;;;;;;4936279;29;20035;-82
2021/04/01 21:17:35;;;;;;;21.35;16.85;;;;;;;;;;4936175;29;20050;-81
2021/04/01 21:20:01;;;;;;;13.65;12.07;;;;;;;;;;4936036;29;20059;-81
2021/04/01 21:22:27;;;;;;;21.92;16.60;;;;;;;;;;4935998;29;20051;-83
2021/04/01 21:24:53;;;;;;;32.85;26.90;;;;;;;;;;4935784;29;20387;-79
2021/04/01 21:27:19;;;;;;;19.25;14.40;;;;;;;;;;4936106;29;20035;-83
2021/04/01 21:29:46;;;;;;;19.98;16.17;;;;;;;;;;4935627;29;20114;-81
2021/04/01 21:32:12;;;;;;;26.92;20.98;;;;;;;;;;4936065;29;20032;-81
2021/04/01 21:34:38;;;;;;;19.73;16.70;;;;;;;;;;4935902;29;20441;-85
2021/04/01 21:37:04;;;;;;;24.63;17.40;;;;;;;;;;4935619;29;20027;-83
2021/04/01 21:39:30;;;;;;;42.58;31.08;;;;;;;;;;4935842;29;20042;-82
2021/04/01 21:41:56;;;;;;;49.25;35.25;;;;;;;;;;4917693;29;20451;-80
2021/04/01 21:44:22;;;;;;;37.85;25.15;;;;;;;;;;4935760;29;20039;-82
2021/04/01 21:46:48;;;;;;;25.85;20.20;;;;;;;;;;4935470;29;20043;-84
2021/04/01 21:49:14;;;;;;;21.13;16.98;;;;;;;;;;4935494;29;20383;-82
2021/04/01 21:51:41;;;;;;;22.40;15.90;;;;;;;;;;4935577;29;20027;-85
2021/04/01 21:54:07;;;;;;;24.45;15.48;;;;;;;;;;4935490;29;20475;-82
2021/04/01 21:56:33;;;;;;;21.98;16.15;;;;;;;;;;4935553;29;20071;-82
2021/04/01 21:58:59;;;;;;;19.58;14.95;;;;;;;;;;4935414;29;20110;-82
2021/04/01 22:01:26;;;;;;;25.88;15.98;;;;;;;;;;4935799;29;20507;-87
2021/04/01 22:03:52;;;;;;;20.17;14.57;;;;;;;;;;4935661;29;20032;-82
2021/04/01 22:06:18;;;;;;;21.83;14.32;;;;;;;;;;4935731;29;20042;-84
2021/04/01 22:08:44;;;;;;;14.90;11.75;;;;;;;;;;4918449;29;20032;-86
2021/04/01 22:11:10;;;;;;;18.17;12.13;;;;;;;;;;4935606;29;20036;-81
2021/04/01 22:13:38;;;;;;;15.27;12.57;;;;;;;;;;4935632;29;20483;-84
2021/04/01 22:16:05;;;;;;;15.48;12.00;;;;;;;;;;4935600;29;20023;-82
2021/04/01 22:18:31;;;;;;;14.90;12.35;;;;;;;;;;4935772;29;20027;-84
2021/04/01 22:20:58;;;;;;;20.02;14.18;;;;;;;;;;4935530;29;20031;-83
2021/04/01 22:23:26;;;;;;;17.13;13.68;;;;;;;;;;4935549;29;20059;-85
2021/04/01 22:25:52;;;;;;;22.38;16.98;;;;;;;;;;4935460;29;20036;-82
2021/04/01 22:28:20;;;;;;;27.70;18.23;;;;;;;;;;4935363;29;20048;-82
2021/04/01 22:30:48;;;;;;;22.52;17.25;;;;;;;;;;4918411;29;20040;-83
2021/04/01 22:33:16;;;;;;;26.10;19.27;;;;;;;;;;4918429;29;20422;-83
2021/04/01 22:35:43;;;;;;;27.60;18.63;;;;;;;;;;4935449;29;20020;-81
2021/04/01 22:38:11;;;;;;;19.17;15.30;;;;;;;;;;4935516;29;20031;-84
2021/04/01 22:40:38;;;;;;;18.05;13.95;;;;;;;;;;4935753;29;20359;-82
2021/04/01 22:43:08;;;;;;;18.33;13.85;;;;;;;;;;4918498;29;20130;-84